createdAt,value
2022-12-15T00:01:22.174Z,22.50
2022-12-15T00:06:43.634Z,22.40
2022-12-15T00:12:04.012Z,22.30
2022-12-15T00:17:24.352Z,22.20
2022-12-15T00:22:46.253Z,22.20
2022-12-15T00:28:06.401Z,22.20
2022-12-15T00:33:28.658Z,22.00
2022-12-15T00:38:43.756Z,22.00
2022-12-15T00:43:47.083Z,21.90
2022-12-15T00:48:50.343Z,21.90
2022-12-15T00:54:17.762Z,21.90
2022-12-15T00:59:38.528Z,21.80
2022-12-15T01:04:58.706Z,21.70
2022-12-15T01:10:20.490Z,21.60
2022-12-15T01:15:40.762Z,21.60
2022-12-15T01:20:43.896Z,21.50
2022-12-15T01:25:49.665Z,21.50
2022-12-15T01:30:52.894Z,21.40
2022-12-15T01:36:00.310Z,21.40
2022-12-15T01:41:07.560Z,21.30
2022-12-15T01:46:11.987Z,21.20
2022-12-15T01:51:23.606Z,21.20
2022-12-15T01:56:32.510Z,21.20
2022-12-15T02:01:38.452Z,21.10
2022-12-15T02:06:41.372Z,21.00
2022-12-15T02:12:11.029Z,21.00
2022-12-15T02:17:23.666Z,21.00
2022-12-15T02:22:37.345Z,20.90
2022-12-15T02:27:52.458Z,20.90
2022-12-15T02:33:08.230Z,20.90
2022-12-15T02:38:11.648Z,20.80
2022-12-15T02:43:14.483Z,20.80
2022-12-15T02:48:27.626Z,20.70
2022-12-15T02:53:51.137Z,20.60
2022-12-15T02:59:04.354Z,20.50
2022-12-15T03:04:10.379Z,20.50
2022-12-15T03:09:13.178Z,20.40
2022-12-15T03:14:16.069Z,20.40
2022-12-15T03:19:20.824Z,20.30
2022-12-15T03:24:23.710Z,20.30
2022-12-15T03:29:26.590Z,20.30
2022-12-15T03:34:30.836Z,20.20
2022-12-15T03:39:33.726Z,20.20
2022-12-15T03:44:36.507Z,20.20
2022-12-15T03:49:40.804Z,20.10
2022-12-15T03:54:43.641Z,20.10
2022-12-15T03:59:46.432Z,20.10
2022-12-15T04:04:50.601Z,20.10
2022-12-15T04:09:53.415Z,20.00
2022-12-15T04:14:56.224Z,20.00
2022-12-15T04:20:12.528Z,19.90
2022-12-15T04:25:35.251Z,19.90
2022-12-15T04:30:56.607Z,19.90
2022-12-15T04:36:18.663Z,19.90
2022-12-15T04:41:41.409Z,19.80
2022-12-15T04:47:01.726Z,19.80
2022-12-15T04:52:23.470Z,19.80
2022-12-15T04:57:43.795Z,19.70
2022-12-15T05:03:04.420Z,19.70
2022-12-15T05:08:26.357Z,19.70
2022-12-15T05:13:46.563Z,19.70
2022-12-15T05:19:06.961Z,19.60
2022-12-15T05:24:28.819Z,19.70
2022-12-15T05:29:49.152Z,19.60
2022-12-15T05:34:51.950Z,19.50
2022-12-15T05:39:56.152Z,19.50
2022-12-15T05:44:58.984Z,19.50
2022-12-15T05:50:01.796Z,19.60
2022-12-15T05:55:06.548Z,19.60
2022-12-15T06:00:10.465Z,19.50
2022-12-15T06:05:13.415Z,19.50
2022-12-15T06:10:17.694Z,19.50
2022-12-15T06:15:20.498Z,19.50
2022-12-15T06:20:24.287Z,19.50
2022-12-15T06:25:28.435Z,19.50
2022-12-15T06:30:31.232Z,19.50
2022-12-15T06:35:37.111Z,19.50
2022-12-15T06:40:42.021Z,19.50
2022-12-15T06:45:49.791Z,19.40
2022-12-15T06:50:53.261Z,19.40
2022-12-15T06:56:02.139Z,19.40
2022-12-15T07:01:08.013Z,19.40
2022-12-15T07:06:13.618Z,19.30
2022-12-15T07:11:17.807Z,19.30
2022-12-15T07:16:21.952Z,19.30
2022-12-15T07:21:24.867Z,19.30
2022-12-15T07:26:29.018Z,19.30
2022-12-15T07:31:32.489Z,19.30
2022-12-15T07:36:35.552Z,19.30
2022-12-15T07:41:41.209Z,19.30
2022-12-15T07:46:46.722Z,19.30
2022-12-15T07:51:49.780Z,19.20
2022-12-15T07:56:54.006Z,19.20
2022-12-15T08:01:56.956Z,19.20
2022-12-15T08:07:00.119Z,19.30
2022-12-15T08:12:04.686Z,19.20
2022-12-15T08:17:07.556Z,19.30
2022-12-15T08:22:11.509Z,19.30
2022-12-15T08:27:15.824Z,19.30
2022-12-15T08:32:18.710Z,19.30
2022-12-15T08:37:21.662Z,19.30
2022-12-15T08:42:25.807Z,19.20
2022-12-15T08:47:28.829Z,19.30
2022-12-15T08:52:31.643Z,19.20
2022-12-15T08:57:35.841Z,19.20
2022-12-15T09:02:38.778Z,19.10
2022-12-15T09:07:41.579Z,19.10
2022-12-15T09:12:46.825Z,19.10
2022-12-15T09:17:49.661Z,19.10
2022-12-15T09:22:52.460Z,19.10
2022-12-15T09:27:57.156Z,19.10
2022-12-15T09:33:00.075Z,19.10
2022-12-15T09:38:02.898Z,19.10
2022-12-15T09:43:33.376Z,19.10
2022-12-15T09:48:38.055Z,19.10
2022-12-15T09:53:56.976Z,19.10
2022-12-15T09:59:09.066Z,19.10
2022-12-15T10:04:21.952Z,19.10
2022-12-15T10:09:28.789Z,19.10
2022-12-15T10:14:38.503Z,19.10
2022-12-15T10:19:50.045Z,19.10
2022-12-15T10:25:11.144Z,19.00
2022-12-15T10:30:16.899Z,19.00
2022-12-15T10:35:23.678Z,19.00
2022-12-15T10:40:50.027Z,19.00
2022-12-15T10:46:05.125Z,18.90
2022-12-15T10:51:20.780Z,18.90
2022-12-15T10:56:32.295Z,18.90
2022-12-15T11:01:37.848Z,18.90
2022-12-15T11:06:43.111Z,19.00
2022-12-15T11:12:05.646Z,19.00
2022-12-15T11:17:09.791Z,19.10
2022-12-15T11:22:20.463Z,19.10
2022-12-15T11:27:30.113Z,19.20
2022-12-15T11:32:37.573Z,19.40
2022-12-15T11:37:42.490Z,19.50
2022-12-15T11:43:02.167Z,19.70
2022-12-15T11:48:13.360Z,19.80
2022-12-15T11:53:42.880Z,20.00
2022-12-15T11:59:10.236Z,20.10
2022-12-15T12:04:21.767Z,20.10
2022-12-15T12:09:33.955Z,20.20
2022-12-15T12:14:50.429Z,20.20
2022-12-15T12:20:00.511Z,20.30
2022-12-15T12:25:07.512Z,20.40
2022-12-15T12:30:15.565Z,20.50
2022-12-15T12:35:31.564Z,20.60
2022-12-15T12:41:03.560Z,20.60
2022-12-15T12:46:14.187Z,20.70
2022-12-15T12:51:30.539Z,20.70
2022-12-15T12:56:38.901Z,20.60
2022-12-15T13:01:42.186Z,20.60
2022-12-15T13:07:05.150Z,20.50
2022-12-15T13:12:53.541Z,20.40
2022-12-15T13:18:01.266Z,20.40
2022-12-15T13:23:37.553Z,20.40
2022-12-15T13:28:46.689Z,20.40
2022-12-15T13:33:57.320Z,20.40
2022-12-15T13:39:01.634Z,20.40
2022-12-15T13:44:16.365Z,20.40
2022-12-15T13:49:27.934Z,20.40
2022-12-15T13:54:35.216Z,20.30
2022-12-15T13:59:45.106Z,20.20
2022-12-15T14:05:22.005Z,20.20
2022-12-15T14:10:30.740Z,20.10
2022-12-15T14:15:35.035Z,20.10
2022-12-15T14:20:41.427Z,20.20
2022-12-15T14:25:53.995Z,20.20
2022-12-15T14:31:00.164Z,20.20
2022-12-15T14:36:07.089Z,20.30
2022-12-15T14:41:20.315Z,20.20
2022-12-15T14:46:26.328Z,20.20
2022-12-15T14:51:31.981Z,20.10
2022-12-15T14:56:36.219Z,20.10
2022-12-15T15:01:41.651Z,20.10
2022-12-15T15:06:50.552Z,20.20
2022-12-15T15:12:01.447Z,20.20
2022-12-15T15:17:09.602Z,20.30
2022-12-15T15:22:34.980Z,20.20
2022-12-15T15:27:40.522Z,20.20
2022-12-15T15:32:55.474Z,20.10
2022-12-15T15:38:04.805Z,20.10
2022-12-15T15:43:12.636Z,20.10
2022-12-15T15:48:22.366Z,20.10
2022-12-15T15:53:26.998Z,20.20
2022-12-15T15:58:31.610Z,20.30
2022-12-15T16:03:35.336Z,20.40
2022-12-15T16:08:38.577Z,20.40
2022-12-15T16:13:42.807Z,20.30
2022-12-15T16:18:45.926Z,20.30
2022-12-15T16:23:49.626Z,20.30
2022-12-15T16:28:54.189Z,20.30
2022-12-15T16:33:57.276Z,20.30
2022-12-15T16:39:00.245Z,20.30
2022-12-15T16:44:04.507Z,20.30
2022-12-15T16:49:07.392Z,20.40
2022-12-15T16:54:17.370Z,20.40
2022-12-15T16:59:38.623Z,20.50
2022-12-15T17:04:41.442Z,20.60
2022-12-15T17:09:44.487Z,20.60
2022-12-15T17:14:48.730Z,20.70
2022-12-15T17:20:27.379Z,20.70
2022-12-15T17:25:27.188Z,20.70
2022-12-15T17:30:41.945Z,20.60
2022-12-15T17:35:44.962Z,20.60
2022-12-15T17:40:49.138Z,20.50
2022-12-15T17:45:55.529Z,20.50
2022-12-15T17:50:58.390Z,20.50
2022-12-15T17:56:01.202Z,20.50
2022-12-15T18:01:05.583Z,20.60
2022-12-15T18:06:14.031Z,20.60
2022-12-15T18:11:17.683Z,20.70
2022-12-15T18:16:21.908Z,20.80
2022-12-15T18:21:24.906Z,20.80
2022-12-15T18:26:27.696Z,20.90
2022-12-15T18:31:31.973Z,20.80
2022-12-15T18:36:35.528Z,20.80
2022-12-15T18:41:38.407Z,20.70
2022-12-15T18:46:47.747Z,20.80
2022-12-15T18:51:51.284Z,20.80
2022-12-15T18:56:54.764Z,20.90
2022-12-15T19:01:59.332Z,21.00
2022-12-15T19:07:06.555Z,21.10
2022-12-15T19:12:20.636Z,21.10
2022-12-15T19:17:42.994Z,21.20
2022-12-15T19:22:47.791Z,21.20
2022-12-15T19:27:50.942Z,21.20
2022-12-15T19:32:55.347Z,21.20
2022-12-15T19:38:00.071Z,21.10
2022-12-15T19:43:04.254Z,21.20
2022-12-15T19:48:10.448Z,21.30
2022-12-15T19:53:17.392Z,21.30
2022-12-15T19:58:27.775Z,21.40
2022-12-15T20:03:33.515Z,21.40
2022-12-15T20:08:39.805Z,21.50
2022-12-15T20:13:42.619Z,21.50
2022-12-15T20:18:46.906Z,21.50
2022-12-15T20:23:52.594Z,21.50
2022-12-15T20:28:55.656Z,21.50
2022-12-15T20:33:59.823Z,21.50
2022-12-15T20:39:02.712Z,21.50
2022-12-15T20:44:12.923Z,21.60
2022-12-15T20:49:19.461Z,21.70
2022-12-15T20:54:23.812Z,21.70
2022-12-15T20:59:26.622Z,21.80
2022-12-15T21:04:32.615Z,21.80
2022-12-15T21:09:35.439Z,21.80
2022-12-15T21:14:38.789Z,21.70
2022-12-15T21:19:43.024Z,21.80
2022-12-15T21:24:46.480Z,21.80
2022-12-15T21:29:52.609Z,21.80
2022-12-15T21:34:57.491Z,21.80
2022-12-15T21:40:00.558Z,21.90
2022-12-15T21:45:03.331Z,21.90
2022-12-15T21:50:08.633Z,21.90
2022-12-15T21:55:16.299Z,21.90
2022-12-15T22:00:20.723Z,21.90
2022-12-15T22:05:29.252Z,21.90
2022-12-15T22:10:32.036Z,21.90
2022-12-15T22:15:34.898Z,21.90
2022-12-15T22:20:39.277Z,21.90
2022-12-15T22:25:42.558Z,21.80
2022-12-15T22:30:45.468Z,21.80
2022-12-15T22:35:50.694Z,21.70
2022-12-15T22:40:55.513Z,21.70
2022-12-15T22:45:58.605Z,21.60
2022-12-15T22:51:02.865Z,21.60
2022-12-15T22:56:11.231Z,21.60
2022-12-15T23:01:14.128Z,21.50
2022-12-15T23:06:18.405Z,21.50
2022-12-15T23:11:41.451Z,21.40
2022-12-15T23:16:45.499Z,21.30
2022-12-15T23:21:49.675Z,21.30
2022-12-15T23:26:53.182Z,21.20
2022-12-15T23:31:56.532Z,21.10
2022-12-15T23:37:00.913Z,21.00
2022-12-15T23:42:05.456Z,21.00
2022-12-15T23:47:08.939Z,20.90
2022-12-15T23:52:13.249Z,20.90
2022-12-15T23:57:17.241Z,20.80
